Time;durP1;ratioP1;P1;durP2;ratioP2;P2;SDS_P1;SDS_P2;PMS_P1;PMS_P2;Temp;Humidity;BMP_temperature;BMP_pressure;BME280_temperature;BME280_humidity;BME280_pressure;Samples;Min_cycle;Max_cycle;Signal;HPM_P1;HPM_P2
2022/02/02 00:00:18;;;;;;;0.50;0.20;;;;;;;11.92;100.00;100300.34;5047797;28;20052;-80
2022/02/02 00:03:24;;;;;;;0.17;0.17;;;;;;;11.89;100.00;100301.28;5047521;28;20163;-79
2022/02/02 00:07:00;;;;;;;1.48;0.40;;;;;;;11.99;100.00;100297.19;5047917;28;20056;-79
2022/02/02 00:09:58;;;;;;;2.38;0.63;;;;;;;12.10;100.00;100286.28;5041472;28;20048;-79
2022/02/02 00:13:07;;;;;;;2.83;0.10;;;;;;;12.22;100.00;100278.09;5032540;28;20060;-80
2022/02/02 00:16:39;;;;;;;1.65;0.80;;;;;;;12.29;100.00;100284.13;5049951;28;20053;-79
2022/02/02 00:22:48;;;;;;;0.60;0.40;;;;;;;12.39;100.00;100282.78;5047799;28;20081;-80
2022/02/02 00:25:58;;;;;;;0.30;0.30;;;;;;;12.44;100.00;100272.97;5047194;28;20048;-79
2022/02/02 00:29:09;;;;;;;0.43;0.25;;;;;;;12.54;100.00;100263.28;5044866;28;20060;-80
2022/02/02 00:32:26;;;;;;;0.40;0.17;;;;;;;12.61;100.00;100274.06;5047466;28;20510;-79
2022/02/02 00:35:35;;;;;;;0.75;0.20;;;;;;;12.58;100.00;100261.81;5046411;28;20290;-80
2022/02/02 00:38:39;;;;;;;0.60;0.28;;;;;;;12.50;100.00;100282.22;5046496;28;20064;-79
2022/02/02 00:41:42;;;;;;;0.22;0.10;;;;;;;12.49;100.00;100283.50;5026639;28;20057;-79
2022/02/02 00:44:49;;;;;;;0.90;0.30;;;;;;;12.42;100.00;100286.66;5020470;28;20064;-79
2022/02/02 00:47:53;;;;;;;0.22;0.10;;;;;;;12.40;100.00;100289.16;5036176;28;20052;-79
2022/02/02 00:50:56;;;;;;;0.32;0.20;;;;;;;12.51;100.00;100290.16;5031261;28;20414;-79
2022/02/02 00:54:00;;;;;;;0.10;0.10;;;;;;;12.53;100.00;100290.44;5032986;28;20060;-79
2022/02/02 00:57:03;;;;;;;0.10;0.10;;;;;;;12.53;100.00;100287.66;5034140;28;20057;-80
2022/02/02 01:00:07;;;;;;;0.20;0.20;;;;;;;12.54;100.00;100282.84;5033604;28;20060;-80
2022/02/02 01:03:11;;;;;;;0.28;0.22;;;;;;;12.49;100.00;100291.88;5033998;28;20052;-80
2022/02/02 01:06:18;;;;;;;0.38;0.30;;;;;;;12.49;100.00;100291.88;5033822;28;20630;-80
2022/02/02 01:09:35;;;;;;;0.73;0.30;;;;;;;12.47;100.00;100295.16;5032733;28;20052;-80
2022/02/02 01:22:19;;;;;;;0.20;0.10;;;;;;;12.40;100.00;100269.59;5033346;28;20047;-80
2022/02/02 01:28:44;;;;;;;0.30;0.30;;;;;;;12.46;100.00;100278.84;5033074;28;20060;-79
2022/02/02 01:31:48;;;;;;;0.30;0.20;;;;;;;12.50;100.00;100257.09;5012732;28;20510;-79
2022/02/02 01:34:52;;;;;;;0.20;0.10;;;;;;;12.51;100.00;100261.44;5035315;28;20064;-79
2022/02/02 01:37:56;;;;;;;0.10;0.00;;;;;;;12.55;100.00;100259.22;5012382;28;20052;-80
2022/02/02 01:41:08;;;;;;;0.30;0.25;;;;;;;12.54;100.00;100244.47;5030946;28;20640;-80
2022/02/02 01:44:28;;;;;;;0.30;0.20;;;;;;;12.59;100.00;100246.63;5033020;28;20528;-80
2022/02/02 01:47:41;;;;;;;0.55;0.30;;;;;;;12.61;100.00;100254.50;5031744;28;20159;-79
2022/02/02 01:56:52;;;;;;;0.10;0.10;;;;;;;12.58;100.00;100255.50;5031713;28;20523;-80
2022/02/02 01:59:57;;;;;;;1.42;0.38;;;;;;;12.60;100.00;100264.16;5031512;28;20056;-79
2022/02/02 02:03:02;;;;;;;0.40;0.40;;;;;;;12.59;100.00;100255.00;5032577;28;20056;-80
2022/02/02 02:06:06;;;;;;;0.28;0.25;;;;;;;12.61;100.00;100265.69;5031376;28;20057;-80
2022/02/02 02:09:09;;;;;;;1.40;0.40;;;;;;;12.64;100.00;100259.94;5031362;28;20068;-79
2022/02/02 02:12:12;;;;;;;0.17;0.10;;;;;;;12.63;100.00;100268.78;5031627;28;20056;-79
2022/02/02 02:15:17;;;;;;;0.70;0.13;;;;;;;12.60;100.00;100258.56;5031828;28;20056;-80
2022/02/02 02:18:21;;;;;;;2.33;0.45;;;;;;;12.59;100.00;100262.59;5032034;28;20072;-79
2022/02/02 02:21:25;;;;;;;1.08;0.40;;;;;;;12.61;100.00;100276.88;5031431;28;20053;-80
2022/02/02 02:24:29;;;;;;;0.73;0.30;;;;;;;12.65;100.00;100283.03;5031353;28;20060;-79
2022/02/02 02:27:32;;;;;;;0.50;0.38;;;;;;;12.67;100.00;100280.53;5012703;28;20081;-80
2022/02/02 02:57:41;;;;;;;1.83;0.80;;;;;;;12.40;100.00;100275.19;5031895;28;20494;-79
2022/02/02 04:00:35;;;;;;;0.10;0.10;;;;;;;12.20;100.00;100259.06;5030568;28;20490;-80
2022/02/02 04:03:58;;;;;;;0.10;0.10;;;;;;;12.19;100.00;100261.06;5031196;28;20052;-80
2022/02/02 04:07:06;;;;;;;0.10;0.10;;;;;;;12.16;100.00;100264.81;5030737;28;20053;-79
2022/02/02 04:10:09;;;;;;;5.93;0.73;;;;;;;12.11;100.00;100262.69;5030220;28;20052;-80
2022/02/02 05:06:52;;;;;;;1.00;0.88;;;;;;;12.21;100.00;100266.19;5025174;28;20049;-79
2022/02/02 05:10:08;;;;;;;0.77;0.65;;;;;;;12.19;100.00;100272.22;5023061;28;20057;-80
2022/02/02 05:16:47;;;;;;;2.47;1.10;;;;;;;12.25;100.00;100271.59;5027937;28;20494;-79
2022/02/02 05:49:23;;;;;;;0.25;0.20;;;;;;;12.21;100.00;100271.00;5032647;28;20076;-79
2022/02/02 05:52:27;;;;;;;2.28;0.30;;;;;;;12.22;100.00;100278.09;5032918;28;20071;-79
2022/02/02 05:55:38;;;;;;;0.77;0.35;;;;;;;12.29;100.00;100286.13;5031968;28;20057;-79
2022/02/02 05:58:45;;;;;;;0.90;0.70;;;;;;;12.27;100.00;100291.44;5032790;28;20411;-79
2022/02/02 06:01:59;;;;;;;0.85;0.40;;;;;;;12.25;100.00;100285.53;5033078;28;20060;-78
2022/02/02 06:05:05;;;;;;;0.40;0.32;;;;;;;12.23;100.00;100293.63;5032490;28;20056;-79
2022/02/02 06:08:17;;;;;;;0.88;0.30;;;;;;;12.23;100.00;100290.84;5032043;28;20076;-79
2022/02/02 06:11:23;;;;;;;0.85;0.63;;;;;;;12.15;100.00;100291.19;5032561;28;20052;-79
2022/02/02 06:14:28;;;;;;;0.20;0.20;;;;;;;12.13;100.00;100293.69;5031842;28;20056;-80
2022/02/02 06:17:34;;;;;;;0.80;0.52;;;;;;;12.11;100.00;100295.41;5031748;28;20506;-78
2022/02/02 06:20:42;;;;;;;0.30;0.25;;;;;;;12.10;100.00;100291.88;5032367;28;20057;-79
2022/02/02 06:24:05;;;;;;;1.05;0.47;;;;;;;12.15;100.00;100291.19;5032061;28;20060;-80
2022/02/02 06:27:11;;;;;;;1.05;0.45;;;;;;;12.15;100.00;100299.56;5012559;28;20048;-79
2022/02/02 06:30:17;;;;;;;6.18;0.70;;;;;;;12.16;100.00;100286.38;5023611;28;20513;-80
2022/02/02 06:33:25;;;;;;;2.85;0.55;;;;;;;12.11;100.00;100304.56;5031046;28;20048;-79
2022/02/02 06:36:30;;;;;;;4.20;0.57;;;;;;;12.11;100.00;100307.34;5030966;28;20060;-78
2022/02/02 06:39:34;;;;;;;1.42;1.27;;;;;;;12.12;100.00;100313.72;5031975;28;20412;-79
2022/02/02 06:42:38;;;;;;;2.92;1.05;;;;;;;12.07;100.00;100306.75;5030906;28;20060;-78
2022/02/02 06:45:43;;;;;;;0.65;0.63;;;;;;;12.03;100.00;100310.97;5032557;28;20061;-78
2022/02/02 06:48:47;;;;;;;10.73;1.63;;;;;;;12.04;100.00;100326.50;5030935;28;20068;-78
2022/02/02 06:52:03;;;;;;;1.80;0.50;;;;;;;12.08;100.00;100319.47;5031509;28;20041;-79
2022/02/02 06:55:12;;;;;;;0.52;0.52;;;;;;;12.11;100.00;100335.28;5031820;28;20057;-78
2022/02/02 06:58:34;;;;;;;6.25;1.05;;;;;;;12.15;100.00;100333.06;5031135;28;20065;-78
2022/02/02 07:28:12;;;;;;;2.47;0.50;;;;;;;12.01;100.00;100369.28;5022968;28;20044;-80
2022/02/02 07:34:49;;;;;;;0.32;0.25;;;;;;;11.96;100.00;100373.50;5017587;28;20731;-79
2022/02/02 07:37:59;;;;;;;0.73;0.22;;;;;;;11.94;100.00;100384.38;5023533;28;20502;-78
2022/02/02 07:41:08;;;;;;;0.20;0.20;;;;;;;11.93;100.00;100385.59;5022814;28;20045;-78
2022/02/02 07:44:18;;;;;;;1.00;0.47;;;;;;;11.90;100.00;100375.41;5018493;28;20402;-78
2022/02/02 07:47:22;;;;;;;0.40;0.40;;;;;;;11.91;100.00;100388.09;5015482;28;20049;-79
2022/02/02 07:50:29;;;;;;;2.20;0.73;;;;;;;11.85;100.00;100389.97;5022445;28;20052;-78
2022/02/02 07:53:48;;;;;;;1.20;0.40;;;;;;;11.82;100.00;100402.09;5021590;28;20049;-78
2022/02/02 07:56:53;;;;;;;0.55;0.52;;;;;;;11.83;100.00;100406.44;5021479;28;20056;-78
2022/02/02 08:00:05;;;;;;;0.28;0.20;;;;;;;11.82;100.00;100423.66;5022290;28;20052;-79
2022/02/02 08:03:12;;;;;;;7.97;0.93;;;;;;;11.82;100.00;100409.69;5034674;28;20510;-78
2022/02/02 08:06:15;;;;;;;2.63;1.27;;;;;;;11.84;100.00;100405.19;5035061;28;20411;-78
2022/02/02 08:13:08;;;;;;;1.15;0.45;;;;;;;11.84;100.00;100419.16;5025903;28;20415;-79
2022/02/02 08:16:15;;;;;;;0.20;0.03;;;;;;;11.85;100.00;100417.88;5029369;28;20053;-79
2022/02/02 08:19:21;;;;;;;0.35;0.28;;;;;;;11.81;100.00;100428.44;5023410;28;20567;-79
2022/02/02 08:22:28;;;;;;;1.48;1.17;;;;;;;11.82;100.00;100418.84;5034571;28;20056;-79
2022/02/02 08:25:33;;;;;;;8.77;0.63;;;;;;;11.81;100.00;100411.72;5034685;28;20045;-78
2022/02/02 08:28:38;;;;;;;8.75;0.55;;;;;;;11.79;100.00;100425.34;5033747;28;20430;-78
2022/02/02 08:31:41;;;;;;;0.10;0.10;;;;;;;11.80;100.00;100421.31;5034218;28;20048;-78
2022/02/02 08:34:48;;;;;;;1.55;0.17;;;;;;;11.85;100.00;100433.84;5034368;28;20056;-78
2022/02/02 08:38:07;;;;;;;0.10;0.10;;;;;;;11.86;100.00;100427.81;5034416;28;20060;-78
2022/02/02 08:41:16;;;;;;;0.77;0.35;;;;;;;11.91;100.00;100429.22;5033975;28;20455;-78
2022/02/02 08:44:28;;;;;;;0.20;0.15;;;;;;;11.91;100.00;100424.38;5034478;28;20056;-78
2022/02/02 08:47:33;;;;;;;1.40;0.82;;;;;;;11.88;100.00;100432.94;5034036;28;20076;-79
2022/02/02 09:00:21;;;;;;;0.77;0.68;;;;;;;11.81;100.00;100444.41;5034454;28;20053;-82
2022/02/02 09:06:47;;;;;;;0.10;0.10;;;;;;;11.80;100.00;100457.59;5033754;28;19951;-83
2022/02/02 09:35:58;;;;;;;0.20;0.20;;;;;;;12.06;100.00;100466.38;5033046;28;20060;-79
2022/02/02 09:39:31;;;;;;;2.80;0.82;;;;;;;12.09;100.00;100471.78;5032205;28;20052;-79
2022/02/02 09:42:32;;;;;;;0.30;0.30;;;;;;;12.16;100.00;100465.84;5033061;28;20490;-80
2022/02/02 09:45:36;;;;;;;1.33;0.50;;;;;;;12.18;100.00;100468.16;5032114;28;20171;-81
2022/02/02 09:48:48;;;;;;;0.20;0.20;;;;;;;12.26;100.00;100474.22;5032874;28;20060;-79
2022/02/02 09:52:00;;;;;;;0.17;0.10;;;;;;;12.24;100.00;100468.28;5033063;28;20053;-79
2022/02/02 09:55:44;;;;;;;0.88;0.68;;;;;;;12.33;100.00;100479.44;5032580;28;20522;-79
2022/02/02 10:05:44;;;;;;;0.80;0.17;;;;;;;12.43;100.00;100473.31;5033550;28;20060;-79
2022/02/02 10:09:11;;;;;;;0.95;0.43;;;;;;;12.47;100.00;100473.94;5043194;28;20053;-79
2022/02/02 10:12:42;;;;;;;0.35;0.35;;;;;;;12.48;100.00;100469.88;5032825;28;20060;-80
2022/02/02 10:15:43;;;;;;;7.43;1.10;;;;;;;12.54;100.00;100479.16;5032569;28;20072;-79
2022/02/02 10:18:46;;;;;;;0.77;0.40;;;;;;;12.58;100.00;100479.75;5030896;28;20057;-78
2022/02/02 10:21:50;;;;;;;1.30;0.93;;;;;;;12.58;100.00;100474.16;5032098;28;20398;-79
2022/02/02 10:24:59;;;;;;;0.20;0.20;;;;;;;12.56;100.00;100476.66;5031783;28;20056;-79
2022/02/02 10:28:20;;;;;;;0.50;0.38;;;;;;;12.65;100.00;100467.47;5030659;28;20061;-79
2022/02/02 10:31:42;;;;;;;0.30;0.25;;;;;;;12.77;100.00;100472.84;5011616;28;20053;-79
2022/02/02 10:34:45;;;;;;;0.10;0.10;;;;;;;12.88;100.00;100464.69;5012255;28;20101;-79
2022/02/02 10:37:57;;;;;;;0.43;0.43;;;;;;;12.95;100.00;100463.53;5012347;28;20077;-80
2022/02/02 10:44:26;;;;;;;0.75;0.08;;;;;;;12.93;100.00;100477.22;5032152;28;20103;-80
2022/02/02 10:47:36;;;;;;;0.45;0.35;;;;;;;13.03;100.00;100475.13;5031042;28;20056;-81
2022/02/02 10:50:50;;;;;;;1.38;0.50;;;;;;;13.12;100.00;100473.09;5031830;28;20064;-80
2022/02/02 10:54:09;;;;;;;2.40;0.95;;;;;;;13.26;100.00;100482.75;5031322;28;20078;-80
2022/02/02 10:57:27;;;;;;;1.35;0.35;;;;;;;13.45;100.00;100479.31;5031056;28;20052;-80
2022/02/02 11:07:18;;;;;;;0.93;0.55;;;;;;;13.40;100.00;100482.78;5031389;28;20411;-77
2022/02/02 11:10:23;;;;;;;0.45;0.38;;;;;;;13.32;100.00;100486.44;5031193;28;20056;-76
2022/02/02 11:13:28;;;;;;;5.97;0.80;;;;;;;13.29;100.00;100471.38;5031438;28;20068;-76
2022/02/02 11:16:35;;;;;;;1.75;0.98;;;;;;;13.23;100.00;100476.09;5031360;28;20056;-79
2022/02/02 11:19:40;;;;;;;1.48;0.50;;;;;;;13.19;100.00;100472.69;5030915;28;20056;-78
2022/02/02 11:22:53;;;;;;;0.52;0.45;;;;;;;13.15;100.00;100482.53;5030284;28;20068;-79
2022/02/02 11:25:59;;;;;;;1.27;0.88;;;;;;;13.14;100.00;100476.19;5030225;28;20056;-78
2022/02/02 11:29:02;;;;;;;0.35;0.25;;;;;;;13.25;100.00;100476.41;5030764;28;20056;-79
2022/02/02 11:32:10;;;;;;;2.38;0.50;;;;;;;13.30;100.00;100467.31;5029650;28;20053;-78
2022/02/02 11:35:38;;;;;;;1.08;0.68;;;;;;;13.62;100.00;100455.19;5030045;28;20064;-78
2022/02/02 11:38:44;;;;;;;2.88;1.05;;;;;;;13.97;100.00;100446.13;5029750;28;20052;-78
2022/02/02 11:41:55;;;;;;;1.00;0.52;;;;;;;14.24;100.00;100435.38;5030141;28;20048;-79
2022/02/02 11:45:14;;;;;;;2.15;0.43;;;;;;;14.41;100.00;100422.41;5031323;28;20407;-79
2022/02/02 11:48:56;;;;;;;0.30;0.20;;;;;;;14.52;100.00;100435.00;5031135;28;20502;-78
2022/02/02 11:52:03;;;;;;;0.32;0.25;;;;;;;14.32;100.00;100427.34;5031840;28;20060;-79
2022/02/02 11:55:12;;;;;;;3.85;0.95;;;;;;;14.22;100.00;100431.50;5029949;28;20435;-79
2022/02/02 11:58:31;;;;;;;5.68;0.73;;;;;;;14.07;100.00;100439.16;5030874;28;20576;-79
2022/02/02 12:01:44;;;;;;;4.85;0.68;;;;;;;13.94;100.00;100431.06;5030235;28;20076;-78
2022/02/02 12:05:28;;;;;;;0.75;0.10;;;;;;;13.83;100.00;100424.50;5053108;28;20068;-80
2022/02/02 12:20:01;;;;;;;3.28;0.85;;;;;;;13.96;100.00;100416.59;5030669;28;20056;-78
2022/02/02 12:56:38;;;;;;;4.63;0.30;;;;;;;14.00;100.00;100366.75;5014223;28;20538;-79
2022/02/02 13:02:51;;;;;;;4.03;1.13;;;;;;;14.04;100.00;100368.09;5034026;28;20056;-78
2022/02/02 13:05:55;;;;;;;2.70;0.55;;;;;;;14.04;100.00;100361.72;5033014;28;20069;-79
2022/02/02 13:09:00;;;;;;;4.05;0.40;;;;;;;13.97;100.00;100353.72;5034910;28;20399;-85
2022/02/02 13:12:20;;;;;;;2.17;0.77;;;;;;;13.77;100.00;100332.06;5035329;28;20072;-81
2022/02/02 13:18:42;;;;;;;;;;;;;;;13.58;100.00;100337.09;5030898;28;20056;-82
2022/02/02 13:21:52;;;;;;;9.30;2.17;;;;;;;13.55;100.00;100331.69;5033049;28;20294;-81
2022/02/02 13:24:56;;;;;;;12.50;2.10;;;;;;;13.55;100.00;100329.69;5028755;28;20052;-81
2022/02/02 13:28:01;;;;;;;2.67;1.35;;;;;;;13.56;100.00;100334.00;5019016;28;20054;-81
2022/02/02 13:31:05;;;;;;;10.68;2.40;;;;;;;13.53;100.00;100323.03;5022595;28;20130;-81
2022/02/02 13:34:25;;;;;;;5.40;0.85;;;;;;;13.54;100.00;100319.72;5013187;28;20045;-82
2022/02/02 13:45:06;;;;;;;0.40;0.22;;;;;;;13.60;100.00;100333.78;5033503;28;20057;-81
2022/02/02 14:00:51;;;;;;;0.30;0.20;;;;;;;13.74;100.00;100329.44;5032646;28;20057;-79
2022/02/02 14:10:54;;;;;;;2.50;0.77;;;;;;;13.57;100.00;100331.97;5032495;28;20064;-82
2022/02/02 14:34:05;;;;;;;2.45;0.35;;;;;;;13.42;100.00;100311.63;5012185;28;20125;-81
2022/02/02 14:37:15;;;;;;;0.20;0.20;;;;;;;13.53;100.00;100323.03;5012413;28;20072;-79
2022/02/02 14:40:33;;;;;;;0.32;0.20;;;;;;;13.56;100.00;100328.41;5023107;28;20060;-79
2022/02/02 14:43:44;;;;;;;0.13;0.03;;;;;;;13.53;100.00;100323.78;5031419;28;20048;-80
2022/02/02 14:47:04;;;;;;;1.15;0.40;;;;;;;13.54;100.00;100333.72;5031237;28;20056;-80
2022/02/02 14:50:19;;;;;;;1.05;0.52;;;;;;;13.53;100.00;100339.81;5031429;28;20060;-80
2022/02/02 14:53:42;;;;;;;0.88;0.20;;;;;;;13.42;100.00;100340.41;5027557;28;20057;-79
2022/02/02 15:23:48;;;;;;;0.30;0.10;;;;;;;13.52;100.00;100316.66;5031287;28;20418;-79
2022/02/02 15:30:26;;;;;;;1.65;0.47;;;;;;;13.67;100.00;100306.19;5022815;28;20064;-79
2022/02/02 15:33:32;;;;;;;0.90;0.38;;;;;;;13.66;100.00;100293.44;5030143;28;20052;-80
2022/02/02 15:39:48;;;;;;;10.05;0.28;;;;;;;13.56;100.00;100294.81;5030799;28;20068;-79
2022/02/02 15:43:06;;;;;;;0.30;0.20;;;;;;;13.53;100.00;100301.41;5030976;28;20486;-78
2022/02/02 16:05:48;;;;;;;5.45;0.93;;;;;;;13.30;100.00;100326.69;5030386;28;20129;-81
2022/02/02 16:09:44;;;;;;;0.40;0.20;;;;;;;13.27;100.00;100320.06;5029903;28;20057;-84
2022/02/02 16:12:25;;;;;;;1.23;0.73;;;;;;;13.19;100.00;100316.06;5031403;28;20048;-81
2022/02/02 16:15:31;;;;;;;3.03;1.17;;;;;;;13.14;100.00;100319.56;5031226;28;20057;-81
2022/02/02 16:32:08;;;;;;;3.50;0.50;;;;;;;12.96;100.00;100283.38;5034288;28;20068;-80
2022/02/02 16:38:33;;;;;;;1.38;0.73;;;;;;;12.83;100.00;100254.91;5033739;28;20061;-80
2022/02/02 16:45:01;;;;;;;1.83;0.30;;;;;;;12.82;100.00;100259.72;5033171;28;20129;-83
2022/02/02 16:48:05;;;;;;;10.02;0.75;;;;;;;12.60;100.00;100247.41;5031426;28;20593;-80
2022/02/02 16:51:09;;;;;;;4.45;1.00;;;;;;;12.62;100.00;100256.06;5033069;28;20041;-77
2022/02/02 16:54:22;;;;;;;0.55;0.32;;;;;;;12.58;100.00;100261.06;5032000;28;20060;-77
2022/02/02 17:24:43;;;;;;;1.52;0.50;;;;;;;12.57;100.00;100231.56;5032448;28;20056;-79
2022/02/02 17:31:04;;;;;;;2.60;0.75;;;;;;;12.42;100.00;100219.63;5032916;28;20052;-79
2022/02/02 17:34:18;;;;;;;7.18;0.40;;;;;;;12.47;100.00;100211.34;5032104;28;20056;-78
2022/02/02 17:37:43;;;;;;;0.47;0.45;;;;;;;12.38;100.00;100213.44;5032321;28;20072;-78
2022/02/02 18:20:05;;;;;;;4.40;2.05;;;;;;;11.89;100.00;100206.38;5032551;28;20056;-77
2022/02/02 18:23:31;;;;;;;1.88;0.43;;;;;;;11.79;100.00;100210.50;5031707;28;20060;-76
2022/02/02 18:30:01;;;;;;;7.40;1.98;;;;;;;11.82;100.00;100201.19;5032076;28;20064;-77
2022/02/02 18:46:30;;;;;;;;;;;;;;;11.67;100.00;100178.03;5032607;28;20777;-78
2022/02/02 18:53:41;;;;;;;2.22;0.73;;;;;;;11.50;100.00;100179.63;5031691;28;20052;-76
2022/02/02 18:59:53;;;;;;;6.40;2.22;;;;;;;11.44;100.00;100181.53;5031444;28;20403;-78
2022/02/02 19:03:27;;;;;;;2.17;1.15;;;;;;;11.44;100.00;100181.53;5030544;28;20073;-79
2022/02/02 20:06:05;;;;;;;0.57;0.30;;;;;;;11.35;100.00;100145.34;5034295;28;20053;-79
2022/02/02 20:12:24;;;;;;;10.93;1.45;;;;;;;11.36;100.00;100142.09;5034808;28;20554;-78
2022/02/02 20:15:33;;;;;;;0.85;0.75;;;;;;;11.34;100.00;100150.16;5034207;28;20045;-76
2022/02/02 20:18:41;;;;;;;1.23;0.93;;;;;;;11.38;100.00;100149.97;5033725;28;20060;-78
2022/02/02 20:21:49;;;;;;;8.02;1.20;;;;;;;11.35;100.00;100154.47;5034387;28;20052;-78
2022/02/02 20:24:57;;;;;;;9.02;0.93;;;;;;;11.42;100.00;100150.56;5034668;28;20100;-79
2022/02/02 20:28:06;;;;;;;9.52;1.77;;;;;;;11.46;100.00;100142.78;5033746;28;20103;-79
2022/02/02 20:31:09;;;;;;;4.53;1.17;;;;;;;11.44;100.00;100142.50;5034256;28;20053;-81
2022/02/02 20:34:13;;;;;;;9.45;1.73;;;;;;;11.46;100.00;100145.59;5033661;28;20056;-79
2022/02/02 20:37:19;;;;;;;0.90;0.55;;;;;;;11.46;100.00;100140.00;5034025;28;20061;-78
2022/02/02 20:40:25;;;;;;;0.80;0.77;;;;;;;11.48;100.00;100134.72;5033946;28;20307;-78
2022/02/02 20:43:34;;;;;;;6.53;0.98;;;;;;;11.42;100.00;100128.25;5032879;28;20052;-78
2022/02/02 21:00:34;;;;;;;4.03;1.42;;;;;;;11.36;100.00;100121.81;5022155;28;20418;-80
2022/02/02 21:10:10;;;;;;;2.13;0.47;;;;;;;11.37;100.00;100123.31;5033690;28;20053;-78
2022/02/02 21:16:40;;;;;;;0.45;0.45;;;;;;;11.34;100.00;100110.34;5034050;28;20506;-80
2022/02/02 21:19:53;;;;;;;0.30;0.20;;;;;;;11.30;100.00;100116.09;5032618;28;20403;-80
2022/02/02 21:23:02;;;;;;;2.00;0.45;;;;;;;11.24;100.00;100122.81;5033677;28;20052;-80
2022/02/02 21:29:10;;;;;;;1.85;0.30;;;;;;;11.29;100.00;100097.06;5016056;28;20061;-80
2022/02/02 21:32:13;;;;;;;2.40;0.95;;;;;;;11.30;100.00;100104.94;5032748;28;20056;-80
2022/02/02 21:35:17;;;;;;;2.47;0.73;;;;;;;11.28;100.00;100098.31;5033103;28;20105;-79
2022/02/02 21:38:32;;;;;;;3.72;0.35;;;;;;;11.24;100.00;100094.94;5031632;28;20510;-79
2022/02/02 21:41:39;;;;;;;1.40;0.68;;;;;;;11.32;100.00;100096.13;5033099;28;20471;-79
2022/02/02 21:44:43;;;;;;;0.32;0.15;;;;;;;11.39;100.00;100092.97;5032968;28;20052;-79
2022/02/02 21:47:47;;;;;;;0.22;0.22;;;;;;;11.34;100.00;100083.25;5033250;28;20060;-79
2022/02/02 21:51:00;;;;;;;0.43;0.22;;;;;;;11.28;100.00;100084.38;5032921;28;20056;-81
2022/02/02 21:54:04;;;;;;;1.08;0.45;;;;;;;11.35;100.00;100090.34;5032310;28;20057;-79
2022/02/02 21:57:08;;;;;;;2.35;0.40;;;;;;;11.28;100.00;100078.81;5031947;28;20056;-79
2022/02/02 22:00:13;;;;;;;0.10;0.10;;;;;;;11.25;100.00;100074.16;5031809;28;20064;-79
2022/02/02 22:03:16;;;;;;;5.72;0.40;;;;;;;11.25;100.00;100068.59;5031775;28;20498;-79
2022/02/02 22:06:19;;;;;;;0.45;0.30;;;;;;;11.25;100.00;100057.44;5032390;28;20053;-79
2022/02/02 22:09:23;;;;;;;4.57;0.73;;;;;;;11.23;100.00;100043.19;5031642;28;20057;-79
2022/02/02 22:12:27;;;;;;;3.42;0.80;;;;;;;11.22;100.00;100047.22;5032059;28;20848;-79
2022/02/02 22:15:41;;;;;;;11.50;0.98;;;;;;;11.20;100.00;100052.50;5032624;28;20060;-79
2022/02/02 22:18:45;;;;;;;0.20;0.20;;;;;;;11.19;100.00;100048.19;5032415;28;20045;-79
2022/02/02 22:21:49;;;;;;;2.60;0.52;;;;;;;11.16;100.00;100054.69;5031010;28;20056;-80
2022/02/02 22:24:53;;;;;;;0.30;0.30;;;;;;;11.16;100.00;100055.47;5031833;28;20060;-78
2022/02/02 22:27:56;;;;;;;10.65;0.63;;;;;;;11.25;100.00;100049.06;5032123;28;20048;-79
2022/02/02 22:30:59;;;;;;;2.30;0.30;;;;;;;11.28;100.00;100045.34;5031906;28;20049;-79
2022/02/02 22:34:03;;;;;;;0.28;0.28;;;;;;;11.27;100.00;100032.63;5030927;28;20518;-79
2022/02/02 22:37:07;;;;;;;1.40;0.55;;;;;;;11.31;100.00;100027.66;5031559;28;20605;-78
2022/02/02 22:40:14;;;;;;;3.70;1.00;;;;;;;11.27;100.00;100033.41;5031508;28;20053;-78
2022/02/02 22:43:18;;;;;;;0.80;0.50;;;;;;;11.31;100.00;100038.81;5031106;28;20053;-79
2022/02/02 22:46:28;;;;;;;0.22;0.15;;;;;;;11.26;100.00;100042.25;5032003;28;20072;-80
2022/02/02 22:49:33;;;;;;;3.63;0.47;;;;;;;11.33;100.00;100044.66;5031380;28;20069;-80
2022/02/02 22:52:39;;;;;;;2.38;1.17;;;;;;;11.31;100.00;100041.59;5030771;28;20044;-80
2022/02/02 22:55:43;;;;;;;2.25;0.73;;;;;;;11.26;100.00;100047.84;5030799;28;20052;-80
2022/02/02 22:58:48;;;;;;;7.88;0.75;;;;;;;11.26;100.00;100031.09;5030791;28;20072;-80
2022/02/02 23:01:59;;;;;;;0.85;0.20;;;;;;;11.23;100.00;100021.69;5031564;28;20537;-80
2022/02/02 23:05:03;;;;;;;3.20;0.20;;;;;;;11.22;100.00;100033.28;5022706;28;20052;-80
2022/02/02 23:08:09;;;;;;;0.43;0.30;;;;;;;11.28;100.00;100031.41;5017731;28;20049;-80
2022/02/02 23:11:14;;;;;;;0.50;0.50;;;;;;;11.28;100.00;100028.63;5025434;28;20399;-81
2022/02/02 23:14:23;;;;;;;1.42;0.80;;;;;;;11.21;100.00;100007.44;5031522;28;20052;-80
2022/02/02 23:17:27;;;;;;;1.48;0.40;;;;;;;11.22;100.00;100002.63;5031565;28;20052;-80
2022/02/02 23:20:33;;;;;;;9.18;0.55;;;;;;;11.10;100.00;99984.91;5035282;28;20423;-79
2022/02/02 23:23:41;;;;;;;3.85;0.65;;;;;;;11.02;100.00;99982.97;5030408;28;20052;-79
2022/02/02 23:26:48;;;;;;;0.38;0.35;;;;;;;10.96;100.00;99977.25;5028383;28;20052;-79
2022/02/02 23:29:55;;;;;;;0.10;0.10;;;;;;;10.88;100.00;99966.97;5027130;28;20052;-80
2022/02/02 23:33:01;;;;;;;0.70;0.30;;;;;;;10.73;100.00;99954.97;5011009;28;20084;-79
2022/02/02 23:36:06;;;;;;;0.10;0.10;;;;;;;10.53;100.00;99948.00;5010428;28;20053;-79
2022/02/02 23:39:10;;;;;;;0.28;0.15;;;;;;;10.28;100.00;99959.56;5016811;28;20061;-80
2022/02/02 23:42:27;;;;;;;1.27;0.90;;;;;;;10.15;100.00;99969.38;5025823;28;20044;-80
2022/02/02 23:45:31;;;;;;;0.20;0.10;;;;;;;9.98;100.00;99968.16;5031176;28;20056;-80
2022/02/02 23:48:42;;;;;;;0.47;0.10;;;;;;;9.75;100.00;99980.72;5030297;28;20057;-80
2022/02/02 23:51:48;;;;;;;8.00;0.77;;;;;;;9.77;100.00;99969.91;5030956;28;20056;-79
2022/02/02 23:54:55;;;;;;;0.75;0.57;;;;;;;9.79;100.00;99959.88;5030800;28;20049;-79
2022/02/02 23:58:19;;;;;;;1.15;0.20;;;;;;;9.86;100.00;99950.41;5029643;28;20064;-80
